createdAt,value
2019-01-21T00:00:05.569Z,20.85
2019-01-21T00:01:05.548Z,20.87
2019-01-21T00:02:05.526Z,20.87
2019-01-21T00:03:05.511Z,20.85
2019-01-21T00:04:05.500Z,20.87
2019-01-21T00:05:05.489Z,20.88
2019-01-21T00:06:05.721Z,20.88
2019-01-21T00:07:05.473Z,20.88
2019-01-21T00:08:05.460Z,20.88
2019-01-21T00:09:05.441Z,20.90
2019-01-21T00:10:05.441Z,20.88
2019-01-21T00:11:05.430Z,20.92
2019-01-21T00:12:05.430Z,20.92
2019-01-21T00:13:05.400Z,20.92
2019-01-21T00:14:05.394Z,20.92
2019-01-21T00:15:05.376Z,20.90
2019-01-21T00:16:05.372Z,20.93
2019-01-21T00:17:05.356Z,20.93
2019-01-21T00:18:05.362Z,20.93
2019-01-21T00:19:05.339Z,20.95
2019-01-21T00:20:05.325Z,20.92
2019-01-21T00:21:05.311Z,20.95
2019-01-21T00:22:05.322Z,20.95
2019-01-21T00:23:05.293Z,20.95
2019-01-21T00:24:05.281Z,20.95
2019-01-21T00:25:05.268Z,20.96
2019-01-21T00:26:05.465Z,20.95
2019-01-21T00:27:05.250Z,20.96
2019-01-21T00:28:05.234Z,20.95
2019-01-21T00:29:05.223Z,20.96
2019-01-21T00:30:05.215Z,20.96
2019-01-21T00:31:05.206Z,20.96
2019-01-21T00:32:05.211Z,20.95
2019-01-21T00:33:05.185Z,20.95
2019-01-21T00:34:05.167Z,20.96
2019-01-21T00:35:05.154Z,20.96
2019-01-21T00:36:05.144Z,20.95
2019-01-21T00:37:05.144Z,20.96
2019-01-21T00:38:05.151Z,20.95
2019-01-21T00:39:05.117Z,20.93
2019-01-21T00:40:05.099Z,20.96
2019-01-21T00:41:05.093Z,20.96
2019-01-21T00:42:05.082Z,20.96
2019-01-21T00:43:05.069Z,20.95
2019-01-21T00:44:05.087Z,20.96
2019-01-21T00:45:05.047Z,20.95
2019-01-21T00:46:05.042Z,20.95
2019-01-21T00:47:05.027Z,20.96
2019-01-21T00:48:05.016Z,20.95
2019-01-21T00:49:05.020Z,20.95
2019-01-21T00:50:04.989Z,20.95
2019-01-21T00:51:05.209Z,20.95
2019-01-21T00:52:04.970Z,20.95
2019-01-21T00:53:04.959Z,20.95
2019-01-21T00:54:04.952Z,20.95
2019-01-21T00:55:04.941Z,20.95
2019-01-21T00:56:04.925Z,20.95
2019-01-21T00:57:04.939Z,20.93
2019-01-21T00:58:04.904Z,20.95
2019-01-21T00:59:04.911Z,20.95
2019-01-21T01:00:04.886Z,20.93
2019-01-21T01:01:04.906Z,20.93
2019-01-21T01:02:04.887Z,20.93
2019-01-21T01:03:04.850Z,20.95
2019-01-21T01:04:04.842Z,20.93
2019-01-21T01:05:04.829Z,20.93
2019-01-21T01:06:04.821Z,20.93
2019-01-21T01:07:04.802Z,20.93
2019-01-21T01:08:05.003Z,20.93
2019-01-21T01:09:04.782Z,20.92
2019-01-21T01:10:04.771Z,20.92
2019-01-21T01:11:04.763Z,20.92
2019-01-21T01:12:04.747Z,20.93
2019-01-21T01:13:04.737Z,20.93
2019-01-21T01:14:04.759Z,20.92
2019-01-21T01:15:04.722Z,20.92
2019-01-21T01:16:04.702Z,20.93
2019-01-21T01:17:04.692Z,20.90
2019-01-21T01:18:04.685Z,20.93
2019-01-21T01:19:04.680Z,20.90
2019-01-21T01:20:04.683Z,20.92
2019-01-21T01:21:04.649Z,20.92
2019-01-21T01:22:04.639Z,20.92
2019-01-21T01:23:04.633Z,20.92
2019-01-21T01:24:04.725Z,20.92
2019-01-21T01:25:04.608Z,20.93
2019-01-21T01:26:04.599Z,20.92
2019-01-21T01:27:04.588Z,20.90
2019-01-21T01:28:04.594Z,20.90
2019-01-21T01:29:04.566Z,20.92
2019-01-21T01:30:04.569Z,20.92
2019-01-21T01:31:04.547Z,20.92
2019-01-21T01:32:04.533Z,20.92
2019-01-21T01:33:04.536Z,20.90
2019-01-21T01:34:04.513Z,20.92
2019-01-21T01:35:04.494Z,20.90
2019-01-21T01:36:04.491Z,20.92
2019-01-21T01:37:04.477Z,20.92
2019-01-21T01:38:04.461Z,20.90
2019-01-21T01:39:04.667Z,20.92
2019-01-21T01:40:04.449Z,20.92
2019-01-21T01:41:04.434Z,20.93
2019-01-21T01:42:04.425Z,20.92
2019-01-21T01:43:04.407Z,20.92
2019-01-21T01:44:04.401Z,20.92
2019-01-21T01:45:04.407Z,20.92
2019-01-21T01:46:04.373Z,20.92
2019-01-21T01:47:04.364Z,20.92
2019-01-21T01:48:04.352Z,20.90
2019-01-21T01:49:04.340Z,20.90
2019-01-21T01:50:04.608Z,20.90
2019-01-21T01:51:04.332Z,20.90
2019-01-21T01:52:04.314Z,20.90
2019-01-21T01:53:04.305Z,20.92
2019-01-21T01:54:04.285Z,20.88
2019-01-21T01:55:04.279Z,20.90
2019-01-21T01:56:04.479Z,20.90
2019-01-21T01:57:04.257Z,20.90
2019-01-21T01:58:04.246Z,20.88
2019-01-21T01:59:04.233Z,20.90
2019-01-21T02:00:04.221Z,20.90
2019-01-21T02:01:04.214Z,20.88
2019-01-21T02:02:04.225Z,20.88
2019-01-21T02:03:04.190Z,20.90
2019-01-21T02:04:04.183Z,20.90
2019-01-21T02:05:04.171Z,20.87
2019-01-21T02:06:04.157Z,20.88
2019-01-21T02:07:04.147Z,20.87
2019-01-21T02:08:04.160Z,20.87
2019-01-21T02:09:04.122Z,20.88
2019-01-21T02:10:04.114Z,20.88
2019-01-21T02:11:04.106Z,20.88
2019-01-21T02:12:04.093Z,20.87
2019-01-21T02:13:04.102Z,20.87
2019-01-21T02:14:04.074Z,20.87
2019-01-21T02:15:04.057Z,20.85
2019-01-21T02:16:04.050Z,20.85
2019-01-21T02:17:04.041Z,20.85
2019-01-21T02:18:04.031Z,20.85
2019-01-21T02:19:04.041Z,20.85
2019-01-21T02:20:04.009Z,20.84
2019-01-21T02:21:03.996Z,20.85
2019-01-21T02:22:03.988Z,20.85
2019-01-21T02:23:04.251Z,20.84
2019-01-21T02:24:03.962Z,20.85
2019-01-21T02:25:03.948Z,20.82
2019-01-21T02:26:03.940Z,20.82
2019-01-21T02:27:03.933Z,20.82
2019-01-21T02:28:03.918Z,20.82
2019-01-21T02:29:03.927Z,20.82
2019-01-21T02:30:03.891Z,20.82
2019-01-21T02:31:03.906Z,20.82
2019-01-21T02:32:03.877Z,20.82
2019-01-21T02:33:03.861Z,20.82
2019-01-21T02:34:03.845Z,20.81
2019-01-21T02:35:03.835Z,20.82
2019-01-21T02:36:03.840Z,20.81
2019-01-21T02:37:03.835Z,20.82
2019-01-21T02:38:03.803Z,20.81
2019-01-21T02:39:03.801Z,20.80
2019-01-21T02:40:03.783Z,20.80
2019-01-21T02:41:03.799Z,20.81
2019-01-21T02:42:03.765Z,20.81
2019-01-21T02:43:03.963Z,20.80
2019-01-21T02:44:03.741Z,20.80
2019-01-21T02:45:03.732Z,20.80
2019-01-21T02:46:03.714Z,20.78
2019-01-21T02:47:03.710Z,20.80
2019-01-21T02:48:03.694Z,20.78
2019-01-21T02:49:03.710Z,20.77
2019-01-21T02:50:03.705Z,20.77
2019-01-21T02:51:03.660Z,20.77
2019-01-21T02:52:03.653Z,20.77
2019-01-21T02:53:03.646Z,20.78
2019-01-21T02:54:03.629Z,20.75
2019-01-21T02:55:03.648Z,20.77
2019-01-21T02:56:03.610Z,20.77
2019-01-21T02:57:03.593Z,20.75
2019-01-21T02:58:03.588Z,20.77
2019-01-21T02:59:03.578Z,20.75
2019-01-21T03:00:03.568Z,20.77
2019-01-21T03:01:03.588Z,20.74
2019-01-21T03:02:04.893Z,20.75
2019-01-21T03:03:03.535Z,20.74
2019-01-21T03:04:03.516Z,20.74
2019-01-21T03:05:03.541Z,20.72
2019-01-21T03:06:03.496Z,20.74
2019-01-21T03:07:03.695Z,20.74
2019-01-21T03:08:03.475Z,20.72
2019-01-21T03:09:03.464Z,20.74
2019-01-21T03:10:03.453Z,20.74
2019-01-21T03:11:03.447Z,20.74
2019-01-21T03:12:03.436Z,20.74
2019-01-21T03:13:03.447Z,20.74
2019-01-21T03:14:03.413Z,20.72
2019-01-21T03:15:03.400Z,20.72
2019-01-21T03:16:03.389Z,20.72
2019-01-21T03:17:03.372Z,20.72
2019-01-21T03:18:07.954Z,20.72
2019-01-21T03:19:03.372Z,20.70
2019-01-21T03:20:03.345Z,20.72
2019-01-21T03:21:03.329Z,20.70
2019-01-21T03:22:03.329Z,20.70
2019-01-21T03:23:03.311Z,20.69
2019-01-21T03:24:03.316Z,20.70
2019-01-21T03:25:03.286Z,20.72
2019-01-21T03:26:03.281Z,20.70
2019-01-21T03:27:03.263Z,20.70
2019-01-21T03:28:03.253Z,20.70
2019-01-21T03:29:03.271Z,20.70
2019-01-21T03:30:03.234Z,20.70
2019-01-21T03:31:03.228Z,20.69
2019-01-21T03:32:03.229Z,20.69
2019-01-21T03:33:03.203Z,20.69
2019-01-21T03:34:03.194Z,20.70
2019-01-21T03:35:03.197Z,20.69
2019-01-21T03:36:03.169Z,20.69
2019-01-21T03:37:03.152Z,20.67
2019-01-21T03:38:03.143Z,20.69
2019-01-21T03:39:03.137Z,20.69
2019-01-21T03:40:03.145Z,20.69
2019-01-21T03:41:03.114Z,20.67
2019-01-21T03:42:03.107Z,20.69
2019-01-21T03:43:03.091Z,20.69
2019-01-21T03:44:03.084Z,20.67
2019-01-21T03:45:03.071Z,20.67
2019-01-21T03:46:03.093Z,20.67
2019-01-21T03:47:03.044Z,20.67
2019-01-21T03:48:03.031Z,20.66
2019-01-21T03:49:03.025Z,20.67
2019-01-21T03:50:03.016Z,20.67
2019-01-21T03:51:03.005Z,20.67
2019-01-21T03:52:03.212Z,20.67
2019-01-21T03:53:02.979Z,20.67
2019-01-21T03:54:02.973Z,20.66
2019-01-21T03:55:02.955Z,20.66
2019-01-21T03:56:02.946Z,20.66
2019-01-21T03:57:02.938Z,20.66
2019-01-21T03:58:02.948Z,20.66
2019-01-21T03:59:02.914Z,20.66
2019-01-21T04:00:02.906Z,20.67
2019-01-21T04:01:02.898Z,20.66
2019-01-21T04:02:02.891Z,20.66
2019-01-21T04:03:02.896Z,20.66
2019-01-21T04:04:02.886Z,20.66
2019-01-21T04:05:02.849Z,20.66
2019-01-21T04:06:02.847Z,20.65
2019-01-21T04:07:02.825Z,20.65
2019-01-21T04:08:02.849Z,20.65
2019-01-21T04:09:02.812Z,20.65
2019-01-21T04:10:02.822Z,20.65
2019-01-21T04:11:02.792Z,20.66
2019-01-21T04:12:02.776Z,20.65
2019-01-21T04:13:02.763Z,20.65
2019-01-21T04:14:02.750Z,20.65
2019-01-21T04:15:02.741Z,20.65
2019-01-21T04:16:02.752Z,20.65
2019-01-21T04:17:02.716Z,20.65
2019-01-21T04:18:02.706Z,20.65
2019-01-21T04:19:02.699Z,20.65
2019-01-21T04:20:02.680Z,20.65
2019-01-21T04:21:02.734Z,20.65
2019-01-21T04:22:02.663Z,20.63
2019-01-21T04:23:02.654Z,20.65
2019-01-21T04:24:02.637Z,20.65
2019-01-21T04:25:02.626Z,20.65
2019-01-21T04:26:02.637Z,20.65
2019-01-21T04:27:02.642Z,20.63
2019-01-21T04:28:02.593Z,20.63
2019-01-21T04:29:02.587Z,20.63
2019-01-21T04:30:02.590Z,20.63
2019-01-21T04:31:02.567Z,20.63
2019-01-21T04:32:02.553Z,20.65
2019-01-21T04:33:02.580Z,20.62
2019-01-21T04:34:02.533Z,20.63
2019-01-21T04:35:02.520Z,20.63
2019-01-21T04:36:02.516Z,20.63
2019-01-21T04:37:02.501Z,20.62
2019-01-21T04:38:02.489Z,20.65
2019-01-21T04:39:02.503Z,20.63
2019-01-21T04:40:02.467Z,20.63
2019-01-21T04:41:02.461Z,20.62
2019-01-21T04:42:02.449Z,20.62
2019-01-21T04:43:02.435Z,20.63
2019-01-21T04:44:02.423Z,20.62
2019-01-21T04:45:02.447Z,20.62
2019-01-21T04:46:02.405Z,20.60
2019-01-21T04:47:02.395Z,20.63
2019-01-21T04:48:02.384Z,20.63
2019-01-21T04:49:02.370Z,20.62
2019-01-21T04:50:02.368Z,20.62
2019-01-21T04:51:02.377Z,20.63
2019-01-21T04:52:02.334Z,20.62
2019-01-21T04:53:02.329Z,20.60
2019-01-21T04:54:02.320Z,20.62
2019-01-21T04:55:02.311Z,20.60
2019-01-21T04:56:02.321Z,20.60
2019-01-21T04:57:02.286Z,20.60
2019-01-21T04:58:02.275Z,20.60
2019-01-21T04:59:02.262Z,20.60
2019-01-21T05:00:02.251Z,20.62
2019-01-21T05:01:02.247Z,20.60
2019-01-21T05:02:02.255Z,20.59
2019-01-21T05:03:02.223Z,20.60
2019-01-21T05:04:02.214Z,20.59
2019-01-21T05:05:02.210Z,20.60
2019-01-21T05:06:02.194Z,20.62
2019-01-21T05:07:02.186Z,20.59
2019-01-21T05:08:02.190Z,20.59
2019-01-21T05:09:02.158Z,20.59
2019-01-21T05:10:02.148Z,20.59
2019-01-21T05:11:02.134Z,20.59
2019-01-21T05:12:02.121Z,20.59
2019-01-21T05:13:02.112Z,20.59
2019-01-21T05:14:02.125Z,20.59
2019-01-21T05:15:02.098Z,20.59
2019-01-21T05:16:02.090Z,20.58
2019-01-21T05:17:02.075Z,20.59
2019-01-21T05:18:02.064Z,20.59
2019-01-21T05:19:02.105Z,20.59
2019-01-21T05:20:02.045Z,20.58
2019-01-21T05:21:02.028Z,20.58
2019-01-21T05:22:02.016Z,20.58
2019-01-21T05:23:02.007Z,20.58
2019-01-21T05:24:02.292Z,20.58
2019-01-21T05:25:01.987Z,20.58
2019-01-21T05:26:01.976Z,20.59
2019-01-21T05:27:01.968Z,20.58
2019-01-21T05:28:01.968Z,20.58
2019-01-21T05:29:01.943Z,20.58
2019-01-21T05:30:02.146Z,20.59
2019-01-21T05:31:01.923Z,20.59
2019-01-21T05:32:01.910Z,20.59
2019-01-21T05:33:01.931Z,20.59
2019-01-21T05:34:01.889Z,20.58
2019-01-21T05:35:01.883Z,20.58
2019-01-21T05:36:01.886Z,20.58
2019-01-21T05:37:01.876Z,20.59
2019-01-21T05:38:01.842Z,20.60
2019-01-21T05:39:01.839Z,20.58
2019-01-21T05:40:01.843Z,20.59
2019-01-21T05:41:01.819Z,20.58
2019-01-21T05:42:01.804Z,20.59
2019-01-21T05:43:01.820Z,20.59
2019-01-21T05:44:01.782Z,20.58
2019-01-21T05:45:01.775Z,20.58
2019-01-21T05:46:01.754Z,20.59
2019-01-21T05:47:01.748Z,20.60
2019-01-21T05:48:01.735Z,20.59
2019-01-21T05:49:01.751Z,20.60
2019-01-21T05:50:01.710Z,20.58
2019-01-21T05:51:01.701Z,20.58
2019-01-21T05:52:01.692Z,20.60
2019-01-21T05:53:01.677Z,20.59
2019-01-21T05:54:01.675Z,20.59
2019-01-21T05:55:01.705Z,20.59
2019-01-21T05:56:01.652Z,20.59
2019-01-21T05:57:01.668Z,20.60
2019-01-21T05:58:01.626Z,20.59
2019-01-21T05:59:01.612Z,20.59
2019-01-21T06:00:01.617Z,20.59
2019-01-21T06:01:01.613Z,20.59
2019-01-21T06:02:01.583Z,20.60
2019-01-21T06:03:01.596Z,20.60
2019-01-21T06:04:01.557Z,20.59
2019-01-21T06:05:01.548Z,20.59
2019-01-21T06:06:01.544Z,20.60
2019-01-21T06:07:01.749Z,20.60
2019-01-21T06:08:01.517Z,20.60
2019-01-21T06:09:01.512Z,20.60
2019-01-21T06:10:01.498Z,20.60
2019-01-21T06:11:01.484Z,20.59
2019-01-21T06:12:01.473Z,20.60
2019-01-21T06:13:01.678Z,20.59
2019-01-21T06:14:01.455Z,20.60
2019-01-21T06:15:01.440Z,20.60
2019-01-21T06:16:01.429Z,20.60
2019-01-21T06:17:01.423Z,20.59
2019-01-21T06:18:01.410Z,20.60
2019-01-21T06:19:01.428Z,20.60
2019-01-21T06:20:01.413Z,20.60
2019-01-21T06:21:01.378Z,20.59
2019-01-21T06:22:01.368Z,20.59
2019-01-21T06:23:01.356Z,20.60
2019-01-21T06:24:01.342Z,20.59
2019-01-21T06:25:01.557Z,20.59
2019-01-21T06:26:01.324Z,20.60
2019-01-21T06:27:01.315Z,20.60
2019-01-21T06:28:01.299Z,20.60
2019-01-21T06:29:01.289Z,20.60
2019-01-21T06:30:01.280Z,20.60
2019-01-21T06:31:01.286Z,20.60
2019-01-21T06:32:01.260Z,20.60
2019-01-21T06:33:01.249Z,20.60
2019-01-21T06:34:01.232Z,20.59
2019-01-21T06:35:01.228Z,20.59
2019-01-21T06:36:01.237Z,20.60
2019-01-21T06:37:01.206Z,20.59
2019-01-21T06:38:01.196Z,20.59
2019-01-21T06:39:01.185Z,20.59
2019-01-21T06:40:01.165Z,20.60
2019-01-21T06:41:01.176Z,20.59
2019-01-21T06:42:01.145Z,20.59
2019-01-21T06:43:01.133Z,20.59
2019-01-21T06:44:01.123Z,20.59
2019-01-21T06:45:01.119Z,20.58
2019-01-21T06:46:01.100Z,20.59
2019-01-21T06:47:01.302Z,20.59
2019-01-21T06:48:01.081Z,20.58
2019-01-21T06:49:04.804Z,20.58
2019-01-21T06:50:01.060Z,20.60
2019-01-21T06:51:01.047Z,20.58
2019-01-21T06:52:01.034Z,20.60
2019-01-21T06:53:01.055Z,20.59
2019-01-21T06:54:01.014Z,20.59
2019-01-21T06:55:01.001Z,20.59
2019-01-21T06:56:00.995Z,20.59
2019-01-21T06:57:01.004Z,20.59
2019-01-21T06:58:00.975Z,20.59
2019-01-21T06:59:00.984Z,20.59
2019-01-21T07:00:00.944Z,20.59
2019-01-21T07:01:00.939Z,20.58
2019-01-21T07:02:00.931Z,20.59
2019-01-21T07:03:00.922Z,20.59
2019-01-21T07:04:00.905Z,20.59
2019-01-21T07:05:00.921Z,20.58
2019-01-21T07:06:00.886Z,20.59
2019-01-21T07:07:00.870Z,20.58
2019-01-21T07:08:00.864Z,20.59
2019-01-21T07:09:01.069Z,20.60
2019-01-21T07:10:00.846Z,20.58
2019-01-21T07:11:00.825Z,20.59
2019-01-21T07:12:00.818Z,20.58
2019-01-21T07:13:00.811Z,20.56
2019-01-21T07:14:00.793Z,20.58
2019-01-21T07:15:00.841Z,20.58
2019-01-21T07:16:00.771Z,20.56
2019-01-21T07:17:00.762Z,20.56
2019-01-21T07:18:00.751Z,20.58
2019-01-21T07:19:00.735Z,20.56
2019-01-21T07:20:00.724Z,20.55
2019-01-21T07:21:00.744Z,20.56
2019-01-21T07:22:00.705Z,20.55
2019-01-21T07:23:00.694Z,20.56
2019-01-21T07:24:00.682Z,20.56
2019-01-21T07:25:00.673Z,20.52
2019-01-21T07:26:00.664Z,20.55
2019-01-21T07:27:00.673Z,20.52
2019-01-21T07:28:00.637Z,20.55
2019-01-21T07:29:00.633Z,20.52
2019-01-21T07:30:00.621Z,20.52
2019-01-21T07:31:00.609Z,20.52
2019-01-21T07:32:00.618Z,20.58
2019-01-21T07:33:00.589Z,20.56
2019-01-21T07:34:00.577Z,20.60
2019-01-21T07:35:00.566Z,20.63
2019-01-21T07:36:00.586Z,20.66
2019-01-21T07:37:00.539Z,20.70
2019-01-21T07:38:00.533Z,20.75
2019-01-21T07:39:00.522Z,20.80
2019-01-21T07:40:00.508Z,20.85
2019-01-21T07:41:00.496Z,20.90
2019-01-21T07:42:00.519Z,20.96
2019-01-21T07:43:00.511Z,21.02
2019-01-21T07:44:00.470Z,21.07
2019-01-21T07:45:00.459Z,21.11
2019-01-21T07:46:00.453Z,21.15
2019-01-21T07:47:00.432Z,21.21
2019-01-21T07:48:00.445Z,21.24
2019-01-21T07:49:00.413Z,21.27
2019-01-21T07:50:00.463Z,21.32
2019-01-21T07:51:00.388Z,21.35
2019-01-21T07:52:00.378Z,21.36
2019-01-21T07:53:00.375Z,21.36
2019-01-21T07:54:00.387Z,21.39
2019-01-21T07:55:00.345Z,21.40
2019-01-21T07:56:00.331Z,21.42
2019-01-21T07:57:00.326Z,21.42
2019-01-21T07:58:00.338Z,21.43
2019-01-21T07:59:00.301Z,21.45
2019-01-21T08:00:00.333Z,21.46
2019-01-21T08:01:00.283Z,21.45
2019-01-21T08:02:00.268Z,21.45
2019-01-21T08:03:00.256Z,21.46
2019-01-21T08:04:00.246Z,21.45
2019-01-21T08:05:00.306Z,21.46
2019-01-21T08:06:00.258Z,21.46
2019-01-21T08:07:00.216Z,21.48
2019-01-21T08:08:00.207Z,21.45
2019-01-21T08:09:00.192Z,21.45
2019-01-21T08:10:00.238Z,21.45
2019-01-21T08:11:00.170Z,21.43
2019-01-21T08:12:00.187Z,21.43
2019-01-21T08:13:00.151Z,21.43
2019-01-21T08:14:00.138Z,21.43
2019-01-21T08:15:00.207Z,21.43
2019-01-21T08:16:00.110Z,21.42
2019-01-21T08:17:00.132Z,21.42
2019-01-21T08:18:00.096Z,21.40
2019-01-21T08:19:00.083Z,21.39
2019-01-21T08:20:00.086Z,21.39
2019-01-21T08:21:00.063Z,21.37
2019-01-21T08:22:00.046Z,21.37
2019-01-21T08:23:00.066Z,21.36
2019-01-21T08:24:00.031Z,21.36
2019-01-21T08:25:00.014Z,21.35
2019-01-21T08:26:00.020Z,21.35
2019-01-21T08:26:59.996Z,21.33
2019-01-21T08:27:59.984Z,21.33
2019-01-21T08:29:00.002Z,21.32
2019-01-21T08:29:59.964Z,21.30
2019-01-21T08:30:59.950Z,21.29
2019-01-21T08:31:59.937Z,21.27
2019-01-21T08:32:59.933Z,21.27
2019-01-21T08:33:59.920Z,21.25
2019-01-21T08:34:59.933Z,21.24
2019-01-21T08:35:59.893Z,21.22
2019-01-21T08:36:59.884Z,21.22
2019-01-21T08:37:59.876Z,21.21
2019-01-21T08:38:59.867Z,21.18
2019-01-21T08:39:59.849Z,21.18
2019-01-21T08:40:59.861Z,21.15
2019-01-21T08:42:00.044Z,21.17
2019-01-21T08:42:59.816Z,21.15
2019-01-21T08:43:59.810Z,21.14
2019-01-21T08:44:59.796Z,21.12
2019-01-21T08:45:59.785Z,21.12
2019-01-21T08:46:59.784Z,21.11
2019-01-21T08:47:59.786Z,21.09
2019-01-21T08:48:59.757Z,21.09
2019-01-21T08:49:59.745Z,21.06
2019-01-21T08:50:59.733Z,21.05
2019-01-21T08:51:59.725Z,21.05
2019-01-21T08:52:59.736Z,21.03
2019-01-21T08:53:59.703Z,21.02
2019-01-21T08:54:59.686Z,21.00
2019-01-21T08:55:59.679Z,21.00
2019-01-21T08:56:59.666Z,20.99
2019-01-21T08:57:59.682Z,20.97
2019-01-21T08:58:59.648Z,20.96
2019-01-21T08:59:59.634Z,20.95
2019-01-21T09:00:59.634Z,20.95
2019-01-21T09:01:59.615Z,20.93
2019-01-21T09:02:59.619Z,20.92
2019-01-21T09:03:59.592Z,20.92
2019-01-21T09:04:59.577Z,20.88
2019-01-21T09:05:59.567Z,20.88
2019-01-21T09:07:00.795Z,20.87
2019-01-21T09:07:59.571Z,20.85
2019-01-21T09:08:59.539Z,20.85
2019-01-21T09:09:59.528Z,20.84
2019-01-21T09:10:59.533Z,20.84
2019-01-21T09:11:59.497Z,20.82
2019-01-21T09:12:59.516Z,20.82
2019-01-21T09:13:59.483Z,20.82
2019-01-21T09:14:59.470Z,20.82
2019-01-21T09:15:59.459Z,20.82
2019-01-21T09:16:59.446Z,20.80
2019-01-21T09:17:59.452Z,20.81
2019-01-21T09:19:00.528Z,20.82
2019-01-21T09:19:59.410Z,20.81
2019-01-21T09:20:59.425Z,20.84
2019-01-21T09:21:59.388Z,20.85
2019-01-21T09:22:59.382Z,20.85
2019-01-21T09:23:59.370Z,20.87
2019-01-21T09:24:59.354Z,20.90
2019-01-21T09:25:59.348Z,20.90
2019-01-21T09:26:59.369Z,20.92
2019-01-21T09:27:59.355Z,20.93
2019-01-21T09:28:59.314Z,20.97
2019-01-21T09:29:59.301Z,20.99
2019-01-21T09:30:59.287Z,21.00
2019-01-21T09:31:59.286Z,21.02
2019-01-21T09:32:59.294Z,21.05
2019-01-21T09:33:59.255Z,21.05
2019-01-21T09:34:59.249Z,21.06
2019-01-21T09:35:59.239Z,21.07
2019-01-21T09:36:59.229Z,21.09
2019-01-21T09:37:59.252Z,21.11
2019-01-21T09:38:59.234Z,21.12
2019-01-21T09:39:59.189Z,21.14
2019-01-21T09:40:59.186Z,21.15
2019-01-21T09:41:59.172Z,21.15
2019-01-21T09:42:59.159Z,21.17
2019-01-21T09:43:59.150Z,21.18
2019-01-21T09:44:59.242Z,21.20
2019-01-21T09:45:59.123Z,21.20
2019-01-21T09:46:59.117Z,21.21
2019-01-21T09:47:59.104Z,21.21
2019-01-21T09:48:59.096Z,21.22
2019-01-21T09:49:59.099Z,21.22
2019-01-21T09:50:59.078Z,21.22
2019-01-21T09:51:59.056Z,21.24
2019-01-21T09:52:59.051Z,21.24
2019-01-21T09:53:59.038Z,21.25
2019-01-21T09:54:59.055Z,21.25
2019-01-21T09:55:59.018Z,21.24
2019-01-21T09:56:59.004Z,21.25
2019-01-21T09:57:58.997Z,21.25
2019-01-21T09:58:58.986Z,21.25
2019-01-21T09:59:58.978Z,21.27
2019-01-21T10:00:58.986Z,21.29
2019-01-21T10:01:58.977Z,21.30
2019-01-21T10:02:58.938Z,21.30
2019-01-21T10:03:58.936Z,21.32
2019-01-21T10:04:58.919Z,21.33
2019-01-21T10:05:58.929Z,21.35
2019-01-21T10:06:58.922Z,21.35
2019-01-21T10:07:58.884Z,21.36
2019-01-21T10:08:58.878Z,21.39
2019-01-21T10:09:58.864Z,21.39
2019-01-21T10:11:03.377Z,21.42
2019-01-21T10:11:58.867Z,21.40
2019-01-21T10:12:58.871Z,21.42
2019-01-21T10:13:58.821Z,21.43
2019-01-21T10:14:58.813Z,21.45
2019-01-21T10:15:58.799Z,21.45
2019-01-21T10:16:58.793Z,21.46
2019-01-21T10:17:59.763Z,21.46
2019-01-21T10:18:58.772Z,21.46
2019-01-21T10:19:58.764Z,21.48
2019-01-21T10:20:58.746Z,21.48
2019-01-21T10:21:58.740Z,21.48
2019-01-21T10:22:58.725Z,21.50
2019-01-21T10:23:58.740Z,21.51
2019-01-21T10:24:58.706Z,21.51
2019-01-21T10:25:58.694Z,21.52
2019-01-21T10:26:58.682Z,21.51
2019-01-21T10:27:58.667Z,21.54
2019-01-21T10:28:58.656Z,21.52
2019-01-21T10:29:58.672Z,21.52
2019-01-21T10:30:58.636Z,21.52
2019-01-21T10:31:59.479Z,21.54
2019-01-21T10:32:58.620Z,21.54
2019-01-21T10:33:58.607Z,21.54
2019-01-21T10:34:58.618Z,21.55
2019-01-21T10:35:58.583Z,21.55
2019-01-21T10:36:58.570Z,21.55
2019-01-21T10:37:58.562Z,21.54
2019-01-21T10:38:58.548Z,21.55
2019-01-21T10:39:58.539Z,21.55
2019-01-21T10:40:58.559Z,21.55
2019-01-21T10:41:58.518Z,21.55
2019-01-21T10:42:58.514Z,21.55
2019-01-21T10:43:58.496Z,21.55
2019-01-21T10:44:58.483Z,21.55
2019-01-21T10:45:58.480Z,21.55
2019-01-21T10:46:58.680Z,21.55
2019-01-21T10:47:58.454Z,21.55
2019-01-21T10:48:58.438Z,21.55
2019-01-21T10:49:58.429Z,21.57
2019-01-21T10:50:58.423Z,21.54
2019-01-21T10:51:58.408Z,21.55
2019-01-21T10:52:58.418Z,21.54
2019-01-21T10:53:58.407Z,21.55
2019-01-21T10:54:58.372Z,21.52
2019-01-21T10:55:58.372Z,21.54
2019-01-21T10:56:58.356Z,21.52
2019-01-21T10:57:58.347Z,21.52
2019-01-21T10:58:58.364Z,21.52
2019-01-21T10:59:58.322Z,21.52
2019-01-21T11:00:58.314Z,21.52
2019-01-21T11:01:58.299Z,21.51
2019-01-21T11:02:58.286Z,21.52
2019-01-21T11:03:58.303Z,21.51
2019-01-21T11:04:58.271Z,21.51
2019-01-21T11:05:58.256Z,21.52
2019-01-21T11:06:58.246Z,21.51
2019-01-21T11:07:58.235Z,21.50
2019-01-21T11:08:58.225Z,21.50
2019-01-21T11:09:58.245Z,21.50
2019-01-21T11:10:58.222Z,21.50
2019-01-21T11:11:58.189Z,21.48
2019-01-21T11:12:58.182Z,21.50
2019-01-21T11:13:58.194Z,21.48
2019-01-21T11:14:58.154Z,21.48
2019-01-21T11:15:58.142Z,21.48
2019-01-21T11:16:58.136Z,21.48
2019-01-21T11:17:58.120Z,21.48
2019-01-21T11:18:58.116Z,21.46
2019-01-21T11:20:03.747Z,21.46
2019-01-21T11:20:59.092Z,21.45
2019-01-21T11:21:58.079Z,21.46
2019-01-21T11:22:58.070Z,21.48
2019-01-21T11:23:58.064Z,21.46
2019-01-21T11:24:58.053Z,21.46
2019-01-21T11:25:58.066Z,21.48
2019-01-21T11:26:58.024Z,21.48
2019-01-21T11:27:58.011Z,21.46
2019-01-21T11:28:58.004Z,21.48
2019-01-21T11:29:57.994Z,21.50
2019-01-21T11:30:58.007Z,21.50
2019-01-21T11:31:57.970Z,21.50
2019-01-21T11:32:59.149Z,21.50
2019-01-21T11:33:57.949Z,21.50
2019-01-21T11:34:57.936Z,21.50
2019-01-21T11:35:57.948Z,21.51
2019-01-21T11:36:57.939Z,21.51
2019-01-21T11:37:57.912Z,21.52
2019-01-21T11:38:57.894Z,21.51
2019-01-21T11:39:57.882Z,21.52
2019-01-21T11:40:57.877Z,21.52
2019-01-21T11:41:57.866Z,21.52
2019-01-21T11:42:57.878Z,21.51
2019-01-21T11:43:57.838Z,21.52
2019-01-21T11:44:57.831Z,21.52
2019-01-21T11:45:57.815Z,21.51
2019-01-21T11:46:57.812Z,21.52
2019-01-21T11:47:58.014Z,21.52
2019-01-21T11:48:57.783Z,21.51
2019-01-21T11:49:57.782Z,21.52
2019-01-21T11:50:57.771Z,21.51
2019-01-21T11:51:57.756Z,21.54
2019-01-21T11:52:57.749Z,21.50
2019-01-21T11:53:57.979Z,21.51
2019-01-21T11:54:57.723Z,21.52
2019-01-21T11:55:57.714Z,21.51
2019-01-21T11:56:57.700Z,21.51
2019-01-21T11:57:57.684Z,21.52
2019-01-21T11:58:57.682Z,21.54
2019-01-21T11:59:57.699Z,21.51
2019-01-21T12:00:57.659Z,21.51
2019-01-21T12:01:57.646Z,21.51
2019-01-21T12:02:57.630Z,21.51
2019-01-21T12:03:57.704Z,21.52
2019-01-21T12:04:57.632Z,21.51
2019-01-21T12:05:57.602Z,21.52
2019-01-21T12:06:57.590Z,21.52
2019-01-21T12:07:57.580Z,21.52
2019-01-21T12:08:57.571Z,21.52
2019-01-21T12:09:57.585Z,21.54
2019-01-21T12:10:57.545Z,21.54
2019-01-21T12:11:57.536Z,21.54
2019-01-21T12:12:57.524Z,21.54
2019-01-21T12:13:57.517Z,21.55
2019-01-21T12:14:57.501Z,21.54
2019-01-21T12:15:57.508Z,21.55
2019-01-21T12:16:57.696Z,21.55
2019-01-21T12:17:57.472Z,21.55
2019-01-21T12:18:57.457Z,21.55
2019-01-21T12:19:57.452Z,21.55
2019-01-21T12:20:57.434Z,21.55
2019-01-21T12:21:57.425Z,21.55
2019-01-21T12:22:57.439Z,21.55
2019-01-21T12:23:57.404Z,21.55
2019-01-21T12:24:57.420Z,21.54
2019-01-21T12:25:57.378Z,21.55
2019-01-21T12:26:57.409Z,21.55
2019-01-21T12:27:57.362Z,21.55
2019-01-21T12:28:57.376Z,21.55
2019-01-21T12:29:57.333Z,21.55
2019-01-21T12:30:57.333Z,21.55
2019-01-21T12:31:57.318Z,21.55
2019-01-21T12:32:57.313Z,21.57
2019-01-21T12:33:57.328Z,21.55
2019-01-21T12:34:57.289Z,21.55
2019-01-21T12:35:57.274Z,21.57
2019-01-21T12:36:57.268Z,21.57
2019-01-21T12:37:57.251Z,21.54
2019-01-21T12:38:57.293Z,21.55
2019-01-21T12:39:57.235Z,21.55
2019-01-21T12:40:57.218Z,21.55
2019-01-21T12:41:57.211Z,21.55
2019-01-21T12:42:57.211Z,21.55
2019-01-21T12:43:57.187Z,21.55
2019-01-21T12:44:57.198Z,21.54
2019-01-21T12:45:57.170Z,21.55
2019-01-21T12:46:57.158Z,21.55
2019-01-21T12:47:57.152Z,21.54
2019-01-21T12:48:57.138Z,21.54
2019-01-21T12:49:57.123Z,21.54
2019-01-21T12:50:57.143Z,21.54
2019-01-21T12:51:57.104Z,21.51